sensor_id;sensor_type;location;lat;lon;timestamp;P1;durP1;ratioP1;P2;durP2;ratioP2
20908;SDS011;10614;53.198;6.570;2024-01-06T00:01:13;27.38;;;16.75;;
20908;SDS011;10614;53.198;6.570;2024-01-06T00:03:16;26.90;;;16.55;;
20908;SDS011;10614;53.198;6.570;2024-01-06T00:05:18;23.60;;;15.10;;
20908;SDS011;10614;53.198;6.570;2024-01-06T00:07:20;22.65;;;14.60;;
20908;SDS011;10614;53.198;6.570;2024-01-06T00:09:21;22.65;;;14.02;;
20908;SDS011;10614;53.198;6.570;2024-01-06T00:11:23;25.10;;;15.10;;
20908;SDS011;10614;53.198;6.570;2024-01-06T00:13:26;25.05;;;15.23;;
20908;SDS011;10614;53.198;6.570;2024-01-06T00:15:28;23.98;;;15.50;;
20908;SDS011;10614;53.198;6.570;2024-01-06T00:17:30;25.48;;;16.00;;
20908;SDS011;10614;53.198;6.570;2024-01-06T00:19:32;27.00;;;15.70;;
20908;SDS011;10614;53.198;6.570;2024-01-06T00:21:33;26.35;;;15.80;;
20908;SDS011;10614;53.198;6.570;2024-01-06T00:23:34;25.65;;;15.48;;
20908;SDS011;10614;53.198;6.570;2024-01-06T00:34:18;21.58;;;13.82;;
20908;SDS011;10614;53.198;6.570;2024-01-06T00:36:20;21.60;;;13.68;;
20908;SDS011;10614;53.198;6.570;2024-01-06T00:38:21;20.42;;;13.30;;
20908;SDS011;10614;53.198;6.570;2024-01-06T00:40:23;20.67;;;13.05;;
20908;SDS011;10614;53.198;6.570;2024-01-06T00:42:25;23.80;;;14.55;;
20908;SDS011;10614;53.198;6.570;2024-01-06T00:44:27;24.35;;;14.48;;
20908;SDS011;10614;53.198;6.570;2024-01-06T00:46:28;24.10;;;14.70;;
20908;SDS011;10614;53.198;6.570;2024-01-06T00:48:31;24.45;;;14.27;;
20908;SDS011;10614;53.198;6.570;2024-01-06T00:50:34;23.65;;;14.15;;
20908;SDS011;10614;53.198;6.570;2024-01-06T00:52:35;24.88;;;14.65;;
20908;SDS011;10614;53.198;6.570;2024-01-06T00:54:36;24.02;;;14.60;;
20908;SDS011;10614;53.198;6.570;2024-01-06T00:56:38;22.80;;;14.95;;
20908;SDS011;10614;53.198;6.570;2024-01-06T00:58:42;23.58;;;14.60;;
20908;SDS011;10614;53.198;6.570;2024-01-06T01:00:42;26.25;;;14.82;;
20908;SDS011;10614;53.198;6.570;2024-01-06T01:02:44;25.90;;;14.70;;
20908;SDS011;10614;53.198;6.570;2024-01-06T01:04:46;23.17;;;14.65;;
20908;SDS011;10614;53.198;6.570;2024-01-06T01:06:49;26.30;;;14.93;;
20908;SDS011;10614;53.198;6.570;2024-01-06T01:08:51;23.95;;;14.23;;
20908;SDS011;10614;53.198;6.570;2024-01-06T01:10:52;22.60;;;14.15;;
20908;SDS011;10614;53.198;6.570;2024-01-06T01:12:54;25.50;;;15.05;;
20908;SDS011;10614;53.198;6.570;2024-01-06T01:14:56;26.23;;;15.48;;
20908;SDS011;10614;53.198;6.570;2024-01-06T01:16:57;25.45;;;15.00;;
20908;SDS011;10614;53.198;6.570;2024-01-06T01:18:59;23.23;;;13.50;;
20908;SDS011;10614;53.198;6.570;2024-01-06T01:21:02;23.30;;;13.75;;
20908;SDS011;10614;53.198;6.570;2024-01-06T01:23:05;22.83;;;13.88;;
20908;SDS011;10614;53.198;6.570;2024-01-06T01:25:06;23.42;;;14.05;;
20908;SDS011;10614;53.198;6.570;2024-01-06T01:27:08;22.05;;;13.38;;
20908;SDS011;10614;53.198;6.570;2024-01-06T01:29:10;22.38;;;14.25;;
20908;SDS011;10614;53.198;6.570;2024-01-06T01:31:10;22.60;;;14.00;;
20908;SDS011;10614;53.198;6.570;2024-01-06T01:33:13;20.50;;;12.55;;
20908;SDS011;10614;53.198;6.570;2024-01-06T01:35:15;21.05;;;12.85;;
20908;SDS011;10614;53.198;6.570;2024-01-06T01:37:17;21.10;;;13.02;;
20908;SDS011;10614;53.198;6.570;2024-01-06T01:39:20;24.40;;;13.82;;
20908;SDS011;10614;53.198;6.570;2024-01-06T01:41:22;21.67;;;13.48;;
20908;SDS011;10614;53.198;6.570;2024-01-06T01:43:24;21.25;;;12.85;;
20908;SDS011;10614;53.198;6.570;2024-01-06T01:45:25;22.65;;;12.88;;
20908;SDS011;10614;53.198;6.570;2024-01-06T01:47:27;20.63;;;12.27;;
20908;SDS011;10614;53.198;6.570;2024-01-06T01:49:29;25.30;;;13.73;;
20908;SDS011;10614;53.198;6.570;2024-01-06T01:51:32;22.38;;;12.73;;
20908;SDS011;10614;53.198;6.570;2024-01-06T01:53:35;23.00;;;13.57;;
20908;SDS011;10614;53.198;6.570;2024-01-06T01:55:38;21.48;;;13.15;;
20908;SDS011;10614;53.198;6.570;2024-01-06T01:57:40;22.63;;;13.60;;
20908;SDS011;10614;53.198;6.570;2024-01-06T01:59:42;25.65;;;14.40;;
20908;SDS011;10614;53.198;6.570;2024-01-06T02:01:44;22.52;;;12.88;;
20908;SDS011;10614;53.198;6.570;2024-01-06T02:03:47;22.25;;;13.32;;
20908;SDS011;10614;53.198;6.570;2024-01-06T02:05:49;20.50;;;12.93;;
20908;SDS011;10614;53.198;6.570;2024-01-06T02:07:50;24.10;;;12.90;;
20908;SDS011;10614;53.198;6.570;2024-01-06T02:09:52;22.63;;;13.55;;
20908;SDS011;10614;53.198;6.570;2024-01-06T02:11:56;21.60;;;13.13;;
20908;SDS011;10614;53.198;6.570;2024-01-06T02:13:59;23.08;;;13.05;;
20908;SDS011;10614;53.198;6.570;2024-01-06T02:16:02;23.80;;;13.55;;
20908;SDS011;10614;53.198;6.570;2024-01-06T02:18:03;22.67;;;13.90;;
20908;SDS011;10614;53.198;6.570;2024-01-06T02:20:06;22.13;;;13.35;;
20908;SDS011;10614;53.198;6.570;2024-01-06T02:22:10;21.55;;;13.63;;
20908;SDS011;10614;53.198;6.570;2024-01-06T02:24:12;24.17;;;13.85;;
20908;SDS011;10614;53.198;6.570;2024-01-06T02:26:14;24.45;;;14.57;;
20908;SDS011;10614;53.198;6.570;2024-01-06T02:28:16;22.27;;;13.73;;
20908;SDS011;10614;53.198;6.570;2024-01-06T02:30:17;26.35;;;13.95;;
20908;SDS011;10614;53.198;6.570;2024-01-06T02:32:18;22.75;;;13.35;;
20908;SDS011;10614;53.198;6.570;2024-01-06T02:34:20;24.98;;;14.48;;
20908;SDS011;10614;53.198;6.570;2024-01-06T02:36:22;21.55;;;13.35;;
20908;SDS011;10614;53.198;6.570;2024-01-06T02:38:25;23.88;;;13.95;;
20908;SDS011;10614;53.198;6.570;2024-01-06T02:40:26;23.65;;;14.45;;
20908;SDS011;10614;53.198;6.570;2024-01-06T02:42:27;21.85;;;13.02;;
20908;SDS011;10614;53.198;6.570;2024-01-06T02:44:29;24.60;;;14.27;;
20908;SDS011;10614;53.198;6.570;2024-01-06T02:46:29;19.77;;;12.80;;
20908;SDS011;10614;53.198;6.570;2024-01-06T02:48:31;21.08;;;13.35;;
20908;SDS011;10614;53.198;6.570;2024-01-06T02:50:32;22.85;;;13.80;;
20908;SDS011;10614;53.198;6.570;2024-01-06T02:52:33;20.83;;;13.10;;
20908;SDS011;10614;53.198;6.570;2024-01-06T02:54:37;21.65;;;13.05;;
20908;SDS011;10614;53.198;6.570;2024-01-06T02:56:37;23.50;;;13.13;;
20908;SDS011;10614;53.198;6.570;2024-01-06T02:58:39;19.27;;;12.00;;
20908;SDS011;10614;53.198;6.570;2024-01-06T03:00:41;21.23;;;12.52;;
20908;SDS011;10614;53.198;6.570;2024-01-06T03:02:42;21.48;;;12.57;;
20908;SDS011;10614;53.198;6.570;2024-01-06T03:04:44;20.73;;;11.98;;
20908;SDS011;10614;53.198;6.570;2024-01-06T03:06:46;23.40;;;13.52;;
20908;SDS011;10614;53.198;6.570;2024-01-06T03:08:52;21.23;;;12.70;;
20908;SDS011;10614;53.198;6.570;2024-01-06T03:10:55;20.65;;;12.13;;
20908;SDS011;10614;53.198;6.570;2024-01-06T03:12:57;19.60;;;12.73;;
20908;SDS011;10614;53.198;6.570;2024-01-06T03:14:59;22.27;;;12.82;;
20908;SDS011;10614;53.198;6.570;2024-01-06T03:17:00;22.75;;;12.15;;
20908;SDS011;10614;53.198;6.570;2024-01-06T03:19:02;24.00;;;12.98;;
20908;SDS011;10614;53.198;6.570;2024-01-06T03:21:04;22.25;;;12.88;;
20908;SDS011;10614;53.198;6.570;2024-01-06T03:23:06;23.77;;;13.30;;
20908;SDS011;10614;53.198;6.570;2024-01-06T03:25:07;24.65;;;13.75;;
20908;SDS011;10614;53.198;6.570;2024-01-06T03:27:10;23.42;;;13.23;;
20908;SDS011;10614;53.198;6.570;2024-01-06T03:29:12;24.30;;;13.95;;
20908;SDS011;10614;53.198;6.570;2024-01-06T03:31:14;26.30;;;14.00;;
20908;SDS011;10614;53.198;6.570;2024-01-06T03:33:16;23.55;;;14.20;;
20908;SDS011;10614;53.198;6.570;2024-01-06T03:35:18;23.75;;;14.57;;
20908;SDS011;10614;53.198;6.570;2024-01-06T03:37:18;27.30;;;15.40;;
20908;SDS011;10614;53.198;6.570;2024-01-06T03:39:22;22.70;;;13.55;;
20908;SDS011;10614;53.198;6.570;2024-01-06T03:41:24;26.30;;;16.10;;
20908;SDS011;10614;53.198;6.570;2024-01-06T03:43:26;27.40;;;15.93;;
20908;SDS011;10614;53.198;6.570;2024-01-06T03:45:28;28.88;;;16.75;;
20908;SDS011;10614;53.198;6.570;2024-01-06T03:47:29;27.10;;;15.77;;
20908;SDS011;10614;53.198;6.570;2024-01-06T03:49:31;26.02;;;16.13;;
20908;SDS011;10614;53.198;6.570;2024-01-06T03:51:33;30.23;;;17.02;;
20908;SDS011;10614;53.198;6.570;2024-01-06T03:53:34;28.40;;;16.20;;
20908;SDS011;10614;53.198;6.570;2024-01-06T03:55:35;29.33;;;16.42;;
20908;SDS011;10614;53.198;6.570;2024-01-06T03:57:38;28.63;;;16.83;;
20908;SDS011;10614;53.198;6.570;2024-01-06T03:59:41;28.92;;;16.08;;
20908;SDS011;10614;53.198;6.570;2024-01-06T04:01:43;29.08;;;16.70;;
20908;SDS011;10614;53.198;6.570;2024-01-06T04:03:45;25.58;;;16.02;;
20908;SDS011;10614;53.198;6.570;2024-01-06T04:05:47;30.67;;;17.38;;
20908;SDS011;10614;53.198;6.570;2024-01-06T04:07:47;31.85;;;18.35;;
20908;SDS011;10614;53.198;6.570;2024-01-06T04:09:49;29.02;;;16.63;;
20908;SDS011;10614;53.198;6.570;2024-01-06T04:11:51;29.10;;;17.30;;
20908;SDS011;10614;53.198;6.570;2024-01-06T04:13:53;29.38;;;16.63;;
20908;SDS011;10614;53.198;6.570;2024-01-06T04:15:56;29.35;;;17.63;;
20908;SDS011;10614;53.198;6.570;2024-01-06T04:18:01;28.52;;;16.08;;
20908;SDS011;10614;53.198;6.570;2024-01-06T04:20:03;28.13;;;16.10;;
20908;SDS011;10614;53.198;6.570;2024-01-06T04:22:05;29.95;;;15.93;;
20908;SDS011;10614;53.198;6.570;2024-01-06T04:24:06;30.45;;;17.00;;
20908;SDS011;10614;53.198;6.570;2024-01-06T04:26:10;28.65;;;16.13;;
20908;SDS011;10614;53.198;6.570;2024-01-06T04:28:11;30.10;;;17.48;;
20908;SDS011;10614;53.198;6.570;2024-01-06T04:30:13;29.00;;;17.05;;
20908;SDS011;10614;53.198;6.570;2024-01-06T04:32:16;28.90;;;16.80;;
20908;SDS011;10614;53.198;6.570;2024-01-06T04:34:18;31.95;;;16.75;;
20908;SDS011;10614;53.198;6.570;2024-01-06T04:36:20;28.88;;;15.77;;
20908;SDS011;10614;53.198;6.570;2024-01-06T04:38:22;25.98;;;15.88;;
20908;SDS011;10614;53.198;6.570;2024-01-06T04:40:22;28.10;;;16.70;;
20908;SDS011;10614;53.198;6.570;2024-01-06T04:42:24;27.83;;;15.77;;
20908;SDS011;10614;53.198;6.570;2024-01-06T04:44:26;29.65;;;16.45;;
20908;SDS011;10614;53.198;6.570;2024-01-06T04:46:27;27.63;;;16.63;;
20908;SDS011;10614;53.198;6.570;2024-01-06T04:48:32;28.05;;;15.98;;
20908;SDS011;10614;53.198;6.570;2024-01-06T04:50:33;27.05;;;15.38;;
20908;SDS011;10614;53.198;6.570;2024-01-06T04:52:35;27.67;;;15.77;;
20908;SDS011;10614;53.198;6.570;2024-01-06T04:54:37;27.05;;;15.85;;
20908;SDS011;10614;53.198;6.570;2024-01-06T04:56:39;23.88;;;15.45;;
20908;SDS011;10614;53.198;6.570;2024-01-06T04:58:40;25.75;;;15.07;;
20908;SDS011;10614;53.198;6.570;2024-01-06T05:00:41;24.63;;;15.00;;
20908;SDS011;10614;53.198;6.570;2024-01-06T05:02:43;29.33;;;16.25;;
20908;SDS011;10614;53.198;6.570;2024-01-06T05:04:46;23.27;;;15.15;;
20908;SDS011;10614;53.198;6.570;2024-01-06T05:06:48;27.27;;;15.90;;
20908;SDS011;10614;53.198;6.570;2024-01-06T05:08:50;26.63;;;15.25;;
20908;SDS011;10614;53.198;6.570;2024-01-06T05:10:52;26.35;;;15.75;;
20908;SDS011;10614;53.198;6.570;2024-01-06T05:12:54;26.60;;;14.93;;
20908;SDS011;10614;53.198;6.570;2024-01-06T05:14:57;26.92;;;14.70;;
20908;SDS011;10614;53.198;6.570;2024-01-06T05:16:57;25.98;;;15.20;;
20908;SDS011;10614;53.198;6.570;2024-01-06T05:18:59;25.30;;;14.50;;
20908;SDS011;10614;53.198;6.570;2024-01-06T05:21:02;23.13;;;14.23;;
20908;SDS011;10614;53.198;6.570;2024-01-06T05:23:04;23.88;;;14.57;;
20908;SDS011;10614;53.198;6.570;2024-01-06T05:25:07;25.13;;;15.13;;
20908;SDS011;10614;53.198;6.570;2024-01-06T05:27:09;24.30;;;14.57;;
20908;SDS011;10614;53.198;6.570;2024-01-06T05:29:11;23.80;;;14.63;;
20908;SDS011;10614;53.198;6.570;2024-01-06T05:31:11;23.73;;;14.82;;
20908;SDS011;10614;53.198;6.570;2024-01-06T05:33:13;24.45;;;15.10;;
20908;SDS011;10614;53.198;6.570;2024-01-06T05:35:17;22.77;;;13.32;;
20908;SDS011;10614;53.198;6.570;2024-01-06T05:37:20;23.30;;;14.02;;
20908;SDS011;10614;53.198;6.570;2024-01-06T05:39:20;22.73;;;14.63;;
20908;SDS011;10614;53.198;6.570;2024-01-06T05:41:22;21.98;;;13.50;;
20908;SDS011;10614;53.198;6.570;2024-01-06T05:43:24;22.77;;;13.77;;
20908;SDS011;10614;53.198;6.570;2024-01-06T05:45:26;27.10;;;14.50;;
20908;SDS011;10614;53.198;6.570;2024-01-06T05:47:27;25.77;;;14.27;;
20908;SDS011;10614;53.198;6.570;2024-01-06T05:49:29;25.42;;;14.63;;
20908;SDS011;10614;53.198;6.570;2024-01-06T05:51:33;16.60;;;10.65;;
20908;SDS011;10614;53.198;6.570;2024-01-06T05:53:37;24.17;;;13.40;;
20908;SDS011;10614;53.198;6.570;2024-01-06T05:55:38;23.27;;;13.75;;
20908;SDS011;10614;53.198;6.570;2024-01-06T05:57:40;21.42;;;13.55;;
20908;SDS011;10614;53.198;6.570;2024-01-06T05:59:41;22.83;;;13.95;;
20908;SDS011;10614;53.198;6.570;2024-01-06T06:01:42;20.90;;;13.35;;
20908;SDS011;10614;53.198;6.570;2024-01-06T06:03:44;23.50;;;14.02;;
20908;SDS011;10614;53.198;6.570;2024-01-06T06:05:46;22.88;;;13.95;;
20908;SDS011;10614;53.198;6.570;2024-01-06T06:07:48;24.75;;;14.48;;
20908;SDS011;10614;53.198;6.570;2024-01-06T06:09:51;23.95;;;14.60;;
20908;SDS011;10614;53.198;6.570;2024-01-06T06:11:53;25.13;;;15.07;;
20908;SDS011;10614;53.198;6.570;2024-01-06T06:13:55;25.67;;;14.88;;
20908;SDS011;10614;53.198;6.570;2024-01-06T06:15:55;22.88;;;14.55;;
20908;SDS011;10614;53.198;6.570;2024-01-06T06:17:57;21.83;;;14.10;;
20908;SDS011;10614;53.198;6.570;2024-01-06T06:20:00;24.73;;;15.30;;
20908;SDS011;10614;53.198;6.570;2024-01-06T06:22:03;25.17;;;15.15;;
20908;SDS011;10614;53.198;6.570;2024-01-06T06:24:05;24.17;;;14.43;;
20908;SDS011;10614;53.198;6.570;2024-01-06T06:26:09;25.95;;;14.70;;
20908;SDS011;10614;53.198;6.570;2024-01-06T06:28:11;26.20;;;15.25;;
20908;SDS011;10614;53.198;6.570;2024-01-06T06:30:14;25.00;;;15.00;;
20908;SDS011;10614;53.198;6.570;2024-01-06T06:32:16;27.65;;;15.95;;
20908;SDS011;10614;53.198;6.570;2024-01-06T06:34:17;24.88;;;14.55;;
20908;SDS011;10614;53.198;6.570;2024-01-06T06:36:19;26.55;;;15.55;;
20908;SDS011;10614;53.198;6.570;2024-01-06T06:38:20;27.63;;;16.02;;
20908;SDS011;10614;53.198;6.570;2024-01-06T06:40:22;29.30;;;15.95;;
20908;SDS011;10614;53.198;6.570;2024-01-06T06:42:25;26.13;;;14.73;;
20908;SDS011;10614;53.198;6.570;2024-01-06T06:44:27;24.58;;;15.05;;
20908;SDS011;10614;53.198;6.570;2024-01-06T06:46:29;26.58;;;15.63;;
20908;SDS011;10614;53.198;6.570;2024-01-06T06:48:31;28.65;;;16.05;;
20908;SDS011;10614;53.198;6.570;2024-01-06T06:50:33;26.70;;;15.65;;
20908;SDS011;10614;53.198;6.570;2024-01-06T06:52:35;29.27;;;16.50;;
20908;SDS011;10614;53.198;6.570;2024-01-06T06:54:36;24.42;;;15.05;;
20908;SDS011;10614;53.198;6.570;2024-01-06T06:56:37;24.55;;;15.05;;
20908;SDS011;10614;53.198;6.570;2024-01-06T06:58:40;28.00;;;15.85;;
20908;SDS011;10614;53.198;6.570;2024-01-06T07:00:42;25.10;;;15.85;;
20908;SDS011;10614;53.198;6.570;2024-01-06T07:02:44;26.63;;;16.10;;
20908;SDS011;10614;53.198;6.570;2024-01-06T07:04:44;29.17;;;17.30;;
20908;SDS011;10614;53.198;6.570;2024-01-06T07:06:46;27.85;;;15.50;;
20908;SDS011;10614;53.198;6.570;2024-01-06T07:08:48;29.73;;;17.38;;
20908;SDS011;10614;53.198;6.570;2024-01-06T07:10:50;26.00;;;16.38;;
20908;SDS011;10614;53.198;6.570;2024-01-06T07:12:52;28.13;;;17.33;;
20908;SDS011;10614;53.198;6.570;2024-01-06T07:14:55;29.58;;;18.40;;
20908;SDS011;10614;53.198;6.570;2024-01-06T07:16:58;30.10;;;18.58;;
20908;SDS011;10614;53.198;6.570;2024-01-06T07:19:00;29.05;;;17.65;;
20908;SDS011;10614;53.198;6.570;2024-01-06T07:21:01;27.85;;;17.85;;
20908;SDS011;10614;53.198;6.570;2024-01-06T07:23:06;28.17;;;17.20;;
20908;SDS011;10614;53.198;6.570;2024-01-06T07:25:08;30.67;;;18.27;;
20908;SDS011;10614;53.198;6.570;2024-01-06T07:27:12;29.08;;;16.80;;
20908;SDS011;10614;53.198;6.570;2024-01-06T07:29:15;30.05;;;18.05;;
20908;SDS011;10614;53.198;6.570;2024-01-06T07:31:18;33.97;;;19.17;;
20908;SDS011;10614;53.198;6.570;2024-01-06T07:33:20;30.13;;;18.00;;
20908;SDS011;10614;53.198;6.570;2024-01-06T07:35:21;31.98;;;19.70;;
20908;SDS011;10614;53.198;6.570;2024-01-06T07:37:22;35.38;;;19.73;;
20908;SDS011;10614;53.198;6.570;2024-01-06T07:39:23;34.40;;;20.55;;
20908;SDS011;10614;53.198;6.570;2024-01-06T07:41:25;30.23;;;18.83;;
20908;SDS011;10614;53.198;6.570;2024-01-06T07:43:27;35.50;;;20.75;;
20908;SDS011;10614;53.198;6.570;2024-01-06T07:45:28;32.45;;;19.73;;
20908;SDS011;10614;53.198;6.570;2024-01-06T07:47:31;35.50;;;21.00;;
20908;SDS011;10614;53.198;6.570;2024-01-06T07:49:32;35.95;;;21.83;;
20908;SDS011;10614;53.198;6.570;2024-01-06T07:51:34;34.92;;;21.67;;
20908;SDS011;10614;53.198;6.570;2024-01-06T07:53:35;36.13;;;21.67;;
20908;SDS011;10614;53.198;6.570;2024-01-06T07:55:36;35.33;;;20.92;;
20908;SDS011;10614;53.198;6.570;2024-01-06T07:57:38;35.25;;;21.00;;
20908;SDS011;10614;53.198;6.570;2024-01-06T07:59:39;33.20;;;19.88;;
20908;SDS011;10614;53.198;6.570;2024-01-06T08:01:41;35.53;;;19.88;;
20908;SDS011;10614;53.198;6.570;2024-01-06T08:03:44;34.63;;;20.90;;
20908;SDS011;10614;53.198;6.570;2024-01-06T08:05:46;34.60;;;20.77;;
20908;SDS011;10614;53.198;6.570;2024-01-06T08:07:47;36.90;;;21.10;;
20908;SDS011;10614;53.198;6.570;2024-01-06T08:09:49;36.05;;;22.02;;
20908;SDS011;10614;53.198;6.570;2024-01-06T08:11:51;36.15;;;21.45;;
20908;SDS011;10614;53.198;6.570;2024-01-06T08:13:53;36.50;;;21.42;;
20908;SDS011;10614;53.198;6.570;2024-01-06T08:15:55;34.92;;;21.52;;
20908;SDS011;10614;53.198;6.570;2024-01-06T08:17:57;37.22;;;21.55;;
20908;SDS011;10614;53.198;6.570;2024-01-06T08:20:00;37.95;;;21.20;;
20908;SDS011;10614;53.198;6.570;2024-01-06T08:22:03;34.47;;;20.77;;
20908;SDS011;10614;53.198;6.570;2024-01-06T08:24:05;36.28;;;20.25;;
20908;SDS011;10614;53.198;6.570;2024-01-06T08:26:07;35.90;;;20.65;;
20908;SDS011;10614;53.198;6.570;2024-01-06T08:28:07;32.97;;;19.88;;
20908;SDS011;10614;53.198;6.570;2024-01-06T08:30:12;34.70;;;21.13;;
20908;SDS011;10614;53.198;6.570;2024-01-06T08:32:14;37.67;;;21.45;;
20908;SDS011;10614;53.198;6.570;2024-01-06T08:34:16;37.83;;;22.15;;
20908;SDS011;10614;53.198;6.570;2024-01-06T08:36:18;33.63;;;20.50;;
20908;SDS011;10614;53.198;6.570;2024-01-06T08:38:20;34.63;;;20.65;;
20908;SDS011;10614;53.198;6.570;2024-01-06T08:40:23;34.92;;;21.10;;
20908;SDS011;10614;53.198;6.570;2024-01-06T08:42:25;33.85;;;20.67;;
20908;SDS011;10614;53.198;6.570;2024-01-06T08:44:27;33.60;;;20.50;;
20908;SDS011;10614;53.198;6.570;2024-01-06T08:46:29;34.80;;;20.42;;
20908;SDS011;10614;53.198;6.570;2024-01-06T08:48:30;32.60;;;20.15;;
20908;SDS011;10614;53.198;6.570;2024-01-06T08:50:32;33.00;;;19.85;;
20908;SDS011;10614;53.198;6.570;2024-01-06T08:52:35;33.85;;;20.80;;
20908;SDS011;10614;53.198;6.570;2024-01-06T08:54:37;34.97;;;20.60;;
20908;SDS011;10614;53.198;6.570;2024-01-06T08:56:39;33.90;;;20.10;;
20908;SDS011;10614;53.198;6.570;2024-01-06T08:58:41;33.95;;;20.00;;
20908;SDS011;10614;53.198;6.570;2024-01-06T09:00:43;32.50;;;20.52;;
20908;SDS011;10614;53.198;6.570;2024-01-06T09:02:44;34.97;;;20.30;;
20908;SDS011;10614;53.198;6.570;2024-01-06T09:04:45;37.38;;;20.48;;
20908;SDS011;10614;53.198;6.570;2024-01-06T09:06:47;33.70;;;19.77;;
20908;SDS011;10614;53.198;6.570;2024-01-06T09:08:49;33.83;;;19.92;;
20908;SDS011;10614;53.198;6.570;2024-01-06T09:10:51;36.80;;;20.35;;
20908;SDS011;10614;53.198;6.570;2024-01-06T09:12:55;35.13;;;19.60;;
20908;SDS011;10614;53.198;6.570;2024-01-06T09:14:57;32.38;;;19.48;;
20908;SDS011;10614;53.198;6.570;2024-01-06T09:16:59;38.30;;;21.48;;
20908;SDS011;10614;53.198;6.570;2024-01-06T09:19:01;30.67;;;18.52;;
20908;SDS011;10614;53.198;6.570;2024-01-06T09:21:03;33.28;;;19.73;;
20908;SDS011;10614;53.198;6.570;2024-01-06T09:23:05;36.72;;;20.75;;
20908;SDS011;10614;53.198;6.570;2024-01-06T09:25:09;30.52;;;19.02;;
20908;SDS011;10614;53.198;6.570;2024-01-06T09:27:13;31.02;;;18.98;;
20908;SDS011;10614;53.198;6.570;2024-01-06T09:29:15;33.92;;;18.73;;
20908;SDS011;10614;53.198;6.570;2024-01-06T09:31:17;32.30;;;19.33;;
20908;SDS011;10614;53.198;6.570;2024-01-06T09:33:18;32.47;;;18.95;;
20908;SDS011;10614;53.198;6.570;2024-01-06T09:35:19;30.70;;;18.65;;
20908;SDS011;10614;53.198;6.570;2024-01-06T09:37:21;29.58;;;18.70;;
20908;SDS011;10614;53.198;6.570;2024-01-06T09:39:23;30.50;;;18.40;;
20908;SDS011;10614;53.198;6.570;2024-01-06T09:41:26;32.92;;;17.95;;
20908;SDS011;10614;53.198;6.570;2024-01-06T09:43:27;29.63;;;18.65;;
20908;SDS011;10614;53.198;6.570;2024-01-06T09:45:30;29.33;;;17.90;;
20908;SDS011;10614;53.198;6.570;2024-01-06T09:47:32;31.13;;;18.30;;
20908;SDS011;10614;53.198;6.570;2024-01-06T09:49:35;29.05;;;18.13;;
20908;SDS011;10614;53.198;6.570;2024-01-06T09:53:43;28.92;;;18.23;;
20908;SDS011;10614;53.198;6.570;2024-01-06T09:55:50;30.73;;;19.02;;
20908;SDS011;10614;53.198;6.570;2024-01-06T09:57:54;29.33;;;18.20;;
20908;SDS011;10614;53.198;6.570;2024-01-06T09:59:56;32.53;;;19.10;;
20908;SDS011;10614;53.198;6.570;2024-01-06T10:01:59;30.17;;;18.98;;
20908;SDS011;10614;53.198;6.570;2024-01-06T10:04:01;31.40;;;19.02;;
20908;SDS011;10614;53.198;6.570;2024-01-06T10:06:03;30.13;;;18.52;;
20908;SDS011;10614;53.198;6.570;2024-01-06T10:08:05;29.52;;;18.52;;
20908;SDS011;10614;53.198;6.570;2024-01-06T10:10:07;29.65;;;19.10;;
20908;SDS011;10614;53.198;6.570;2024-01-06T10:12:10;29.27;;;18.73;;
20908;SDS011;10614;53.198;6.570;2024-01-06T10:14:13;34.20;;;19.08;;
20908;SDS011;10614;53.198;6.570;2024-01-06T10:16:15;30.50;;;18.23;;
20908;SDS011;10614;53.198;6.570;2024-01-06T10:18:17;30.33;;;18.17;;
20908;SDS011;10614;53.198;6.570;2024-01-06T10:20:19;31.60;;;19.05;;
20908;SDS011;10614;53.198;6.570;2024-01-06T10:22:22;30.30;;;19.05;;
20908;SDS011;10614;53.198;6.570;2024-01-06T10:24:24;31.23;;;18.88;;
20908;SDS011;10614;53.198;6.570;2024-01-06T10:26:25;31.38;;;19.13;;
20908;SDS011;10614;53.198;6.570;2024-01-06T10:28:27;31.08;;;18.50;;
20908;SDS011;10614;53.198;6.570;2024-01-06T10:30:31;27.40;;;17.77;;
20908;SDS011;10614;53.198;6.570;2024-01-06T10:32:34;29.85;;;17.83;;
20908;SDS011;10614;53.198;6.570;2024-01-06T10:34:36;31.20;;;18.45;;
20908;SDS011;10614;53.198;6.570;2024-01-06T10:36:38;29.67;;;18.45;;
20908;SDS011;10614;53.198;6.570;2024-01-06T10:38:40;30.83;;;18.85;;
20908;SDS011;10614;53.198;6.570;2024-01-06T10:40:55;36.58;;;19.23;;
20908;SDS011;10614;53.198;6.570;2024-01-06T10:42:57;34.23;;;19.83;;
20908;SDS011;10614;53.198;6.570;2024-01-06T10:44:59;33.00;;;19.92;;
20908;SDS011;10614;53.198;6.570;2024-01-06T10:47:02;30.90;;;18.58;;
20908;SDS011;10614;53.198;6.570;2024-01-06T10:49:05;29.75;;;18.27;;
20908;SDS011;10614;53.198;6.570;2024-01-06T10:51:08;25.75;;;16.75;;
20908;SDS011;10614;53.198;6.570;2024-01-06T10:53:09;30.00;;;17.83;;
20908;SDS011;10614;53.198;6.570;2024-01-06T10:55:14;28.83;;;16.90;;
20908;SDS011;10614;53.198;6.570;2024-01-06T10:57:17;29.83;;;17.27;;
20908;SDS011;10614;53.198;6.570;2024-01-06T10:59:21;25.50;;;15.75;;
20908;SDS011;10614;53.198;6.570;2024-01-06T11:01:25;28.38;;;16.73;;
20908;SDS011;10614;53.198;6.570;2024-01-06T11:03:27;26.92;;;16.50;;
20908;SDS011;10614;53.198;6.570;2024-01-06T11:05:30;25.52;;;15.75;;
20908;SDS011;10614;53.198;6.570;2024-01-06T11:07:33;23.35;;;15.07;;
20908;SDS011;10614;53.198;6.570;2024-01-06T11:09:36;25.85;;;15.85;;
20908;SDS011;10614;53.198;6.570;2024-01-06T11:11:40;24.05;;;14.80;;
20908;SDS011;10614;53.198;6.570;2024-01-06T11:13:42;24.10;;;15.15;;
20908;SDS011;10614;53.198;6.570;2024-01-06T11:15:46;25.48;;;14.88;;
20908;SDS011;10614;53.198;6.570;2024-01-06T11:17:49;20.00;;;12.15;;
20908;SDS011;10614;53.198;6.570;2024-01-06T11:19:55;24.98;;;15.25;;
20908;SDS011;10614;53.198;6.570;2024-01-06T11:22:17;26.25;;;15.50;;
20908;SDS011;10614;53.198;6.570;2024-01-06T11:24:19;26.42;;;16.23;;
20908;SDS011;10614;53.198;6.570;2024-01-06T11:26:21;23.73;;;15.20;;
20908;SDS011;10614;53.198;6.570;2024-01-06T11:28:23;26.10;;;15.07;;
20908;SDS011;10614;53.198;6.570;2024-01-06T11:30:28;23.55;;;15.02;;
20908;SDS011;10614;53.198;6.570;2024-01-06T11:32:40;24.88;;;14.43;;
20908;SDS011;10614;53.198;6.570;2024-01-06T11:34:42;26.15;;;16.15;;
20908;SDS011;10614;53.198;6.570;2024-01-06T11:36:48;27.48;;;15.73;;
20908;SDS011;10614;53.198;6.570;2024-01-06T11:38:50;25.35;;;15.60;;
20908;SDS011;10614;53.198;6.570;2024-01-06T11:40:52;22.67;;;14.57;;
20908;SDS011;10614;53.198;6.570;2024-01-06T11:42:57;25.52;;;15.80;;
20908;SDS011;10614;53.198;6.570;2024-01-06T11:45:01;24.70;;;15.10;;
20908;SDS011;10614;53.198;6.570;2024-01-06T11:47:03;20.80;;;13.47;;
20908;SDS011;10614;53.198;6.570;2024-01-06T11:49:05;20.33;;;12.57;;
20908;SDS011;10614;53.198;6.570;2024-01-06T11:51:11;21.63;;;13.25;;
20908;SDS011;10614;53.198;6.570;2024-01-06T11:53:14;20.27;;;13.13;;
20908;SDS011;10614;53.198;6.570;2024-01-06T11:55:16;18.80;;;11.60;;
20908;SDS011;10614;53.198;6.570;2024-01-06T11:57:18;19.00;;;11.43;;
20908;SDS011;10614;53.198;6.570;2024-01-06T11:59:20;18.40;;;12.45;;
20908;SDS011;10614;53.198;6.570;2024-01-06T12:01:22;18.10;;;11.45;;
20908;SDS011;10614;53.198;6.570;2024-01-06T12:03:25;17.88;;;11.55;;
20908;SDS011;10614;53.198;6.570;2024-01-06T12:05:28;19.75;;;12.68;;